createdAt,value
2023-03-28T00:12:41.128Z,52.68
2023-03-28T00:15:09.712Z,52.63
2023-03-28T00:17:37.856Z,52.36
2023-03-28T00:20:10.299Z,52.01
2023-03-28T00:22:39.175Z,51.67
2023-03-28T00:25:08.401Z,51.53
2023-03-28T00:27:37.297Z,51.49
2023-03-28T00:30:08.388Z,51.43
2023-03-28T00:32:37.198Z,51.52
2023-03-28T00:35:06.217Z,51.62
2023-03-28T00:37:34.537Z,51.62
2023-03-28T00:40:07.439Z,52.29
2023-03-28T00:42:37.670Z,52.79
2023-03-28T00:45:11.226Z,52.85
2023-03-28T00:47:44.812Z,52.97
2023-03-28T00:50:20.222Z,53.27
2023-03-28T00:52:52.231Z,53.30
2023-03-28T00:55:23.203Z,53.52
2023-03-28T00:57:53.087Z,53.56
2023-03-28T01:00:24.305Z,53.72
2023-03-28T01:02:56.479Z,53.57
2023-03-28T01:05:27.518Z,53.49
2023-03-28T01:08:01.047Z,53.27
2023-03-28T01:10:29.480Z,53.25
2023-03-28T01:12:58.663Z,53.04
2023-03-28T01:15:30.691Z,52.92
2023-03-28T01:18:03.173Z,53.39
2023-03-28T01:20:55.379Z,53.75
2023-03-28T01:23:45.811Z,53.56
2023-03-28T01:26:43.002Z,53.56
2023-03-28T01:29:37.286Z,53.50
2023-03-28T01:32:40.408Z,53.44
2023-03-28T01:35:36.708Z,53.18
2023-03-28T01:38:13.645Z,53.13
2023-03-28T01:40:50.176Z,53.84
2023-03-28T01:43:32.514Z,53.81
2023-03-28T01:46:07.877Z,54.22
2023-03-28T01:48:45.602Z,54.22
2023-03-28T01:51:25.248Z,54.31
2023-03-28T01:54:00.831Z,54.42
2023-03-28T01:56:36.105Z,54.55
2023-03-28T01:59:10.552Z,54.62
2023-03-28T02:02:02.817Z,54.55
2023-03-28T02:04:33.794Z,54.40
2023-03-28T02:07:02.865Z,54.30
2023-03-28T02:09:39.225Z,54.25
2023-03-28T02:12:30.950Z,54.22
2023-03-28T02:15:14.195Z,54.35
2023-03-28T02:18:22.037Z,54.46
2023-03-28T02:21:02.573Z,54.39
2023-03-28T02:23:59.681Z,54.61
2023-03-28T02:26:47.935Z,54.39
2023-03-28T02:29:30.692Z,54.29
2023-03-28T02:32:17.894Z,54.23
2023-03-28T02:34:49.097Z,54.04
2023-03-28T02:37:29.888Z,53.68
2023-03-28T02:40:10.408Z,53.52
2023-03-28T02:43:08.833Z,53.34
2023-03-28T02:46:10.494Z,53.30
2023-03-28T02:48:52.074Z,53.19
2023-03-28T02:51:30.180Z,53.48
2023-03-28T02:54:07.527Z,53.69
2023-03-28T02:56:44.465Z,54.23
2023-03-28T02:59:31.740Z,54.61
2023-03-28T03:02:00.911Z,55.16
2023-03-28T03:04:28.936Z,55.11
2023-03-28T03:06:57.545Z,55.16
2023-03-28T03:09:27.105Z,55.07
2023-03-28T03:11:55.212Z,54.93
2023-03-28T03:14:23.528Z,54.81
2023-03-28T03:16:55.115Z,54.67
2023-03-28T03:19:23.189Z,54.65
2023-03-28T03:21:51.825Z,54.71
2023-03-28T03:24:22.667Z,54.79
2023-03-28T03:26:50.929Z,54.84
2023-03-28T03:29:19.005Z,54.75
2023-03-28T03:31:47.325Z,54.74
2023-03-28T03:34:46.050Z,54.77
2023-03-28T03:37:14.405Z,54.62
2023-03-28T03:39:42.446Z,54.46
2023-03-28T03:42:10.875Z,54.33
2023-03-28T03:44:38.995Z,54.13
2023-03-28T03:47:07.340Z,54.08
2023-03-28T03:49:35.427Z,53.97
2023-03-28T03:52:06.901Z,53.77
2023-03-28T03:54:37.957Z,53.58
2023-03-28T03:57:06.470Z,53.59
2023-03-28T03:59:34.818Z,53.39
2023-03-28T04:02:03.034Z,53.30
2023-03-28T04:04:42.601Z,53.34
2023-03-28T04:07:26.042Z,53.25
2023-03-28T04:09:56.863Z,53.25
2023-03-28T04:12:27.655Z,53.39
2023-03-28T04:14:57.378Z,53.69
2023-03-28T04:17:52.758Z,53.66
2023-03-28T04:20:24.192Z,53.65
2023-03-28T04:23:05.859Z,53.81
2023-03-28T04:25:34.286Z,53.83
2023-03-28T04:28:09.423Z,53.89
2023-03-28T04:30:59.328Z,53.85
2023-03-28T04:33:53.915Z,53.96
2023-03-28T04:36:25.684Z,53.94
2023-03-28T04:39:03.998Z,54.19
2023-03-28T04:41:55.632Z,53.98
2023-03-28T04:44:56.436Z,53.88
2023-03-28T04:47:25.494Z,53.72
2023-03-28T04:49:54.226Z,53.68
2023-03-28T04:52:22.365Z,53.64
2023-03-28T04:54:52.027Z,53.58
2023-03-28T04:57:23.387Z,53.49
2023-03-28T04:59:56.135Z,53.49
2023-03-28T05:02:44.593Z,53.38
2023-03-28T05:05:16.012Z,53.36
2023-03-28T05:07:44.195Z,53.45
2023-03-28T05:10:14.179Z,53.41
2023-03-28T05:12:42.959Z,53.67
2023-03-28T05:15:11.920Z,53.81
2023-03-28T05:18:00.534Z,54.01
2023-03-28T05:20:32.314Z,54.15
2023-03-28T05:23:01.327Z,54.09
2023-03-28T05:25:31.505Z,53.94
2023-03-28T05:27:59.925Z,53.67
2023-03-28T05:30:28.185Z,53.60
2023-03-28T05:32:58.482Z,53.66
2023-03-28T05:35:26.774Z,53.61
2023-03-28T05:37:54.820Z,53.64
2023-03-28T05:40:23.272Z,53.52
2023-03-28T05:42:52.849Z,53.16
2023-03-28T05:45:22.441Z,53.43
2023-03-28T05:48:07.992Z,53.45
2023-03-28T05:50:37.934Z,53.36
2023-03-28T05:53:07.190Z,53.41
2023-03-28T05:55:35.886Z,53.40
2023-03-28T05:58:06.358Z,53.37
2023-03-28T06:00:40.212Z,53.53
2023-03-28T06:03:09.621Z,53.65
2023-03-28T06:05:45.855Z,53.64
2023-03-28T06:08:25.389Z,53.72
2023-03-28T06:10:54.097Z,53.77
2023-03-28T06:16:17.182Z,53.97
2023-03-28T06:18:46.277Z,54.01
2023-03-28T06:21:14.687Z,53.91
2023-03-28T06:23:43.120Z,53.97
2023-03-28T06:26:21.968Z,54.01
2023-03-28T06:28:50.625Z,53.90
2023-03-28T06:31:38.217Z,53.80
2023-03-28T06:34:06.684Z,53.43
2023-03-28T06:36:38.219Z,53.26
2023-03-28T06:39:06.712Z,52.98
2023-03-28T06:41:35.166Z,52.70
2023-03-28T06:44:04.904Z,52.53
2023-03-28T06:47:10.289Z,52.43
2023-03-28T06:49:38.630Z,52.59
2023-03-28T06:52:39.297Z,52.61
2023-03-28T06:55:10.703Z,52.60
2023-03-28T06:57:39.021Z,52.68
2023-03-28T07:00:16.765Z,52.46
2023-03-28T07:03:05.674Z,52.43
2023-03-28T07:05:39.071Z,52.11
2023-03-28T07:08:08.545Z,51.66
2023-03-28T07:10:37.551Z,51.44
2023-03-28T07:13:06.427Z,51.00
2023-03-28T07:15:36.344Z,50.71
2023-03-28T07:18:10.594Z,50.73
2023-03-28T07:20:40.307Z,50.74
2023-03-28T07:23:08.889Z,50.59
2023-03-28T07:25:37.159Z,49.93
2023-03-28T07:28:05.982Z,50.18
2023-03-28T07:30:35.306Z,49.50
2023-03-28T07:33:16.648Z,48.02
2023-03-28T07:35:50.016Z,45.45
2023-03-28T07:38:18.350Z,44.90
2023-03-28T07:40:50.768Z,44.63
2023-03-28T07:43:19.136Z,43.37
2023-03-28T07:45:48.843Z,41.77
2023-03-28T07:48:17.266Z,42.11
2023-03-28T07:50:45.736Z,41.37
2023-03-28T07:53:18.525Z,40.66
2023-03-28T07:55:54.270Z,40.08
2023-03-28T07:58:27.115Z,39.53
2023-03-28T08:01:06.120Z,39.56
2023-03-28T08:03:47.491Z,40.28
2023-03-28T08:06:30.988Z,40.19
2023-03-28T08:09:02.863Z,39.47
2023-03-28T08:11:44.304Z,39.43
2023-03-28T08:14:14.563Z,39.31
2023-03-28T08:16:43.443Z,39.65
2023-03-28T08:19:12.237Z,39.71
2023-03-28T08:22:02.783Z,40.46
2023-03-28T08:24:37.869Z,40.02
2023-03-28T08:27:12.634Z,40.52
2023-03-28T08:29:42.629Z,39.99
2023-03-28T08:32:11.930Z,39.84
2023-03-28T08:34:41.046Z,40.03
2023-03-28T08:37:22.848Z,39.06
2023-03-28T08:39:53.856Z,39.51
2023-03-28T08:42:39.138Z,39.60
2023-03-28T08:45:35.019Z,39.09
2023-03-28T08:48:18.945Z,39.01
2023-03-28T08:50:51.338Z,39.65
2023-03-28T08:53:24.612Z,39.62
2023-03-28T08:55:57.178Z,38.73
2023-03-28T08:58:31.747Z,39.18
2023-03-28T09:01:00.367Z,39.30
2023-03-28T09:03:28.898Z,39.83
2023-03-28T09:06:09.119Z,38.87
2023-03-28T09:09:05.191Z,39.42
2023-03-28T09:11:48.194Z,39.63
2023-03-28T09:14:43.836Z,39.07
2023-03-28T09:17:22.753Z,38.91
2023-03-28T09:20:11.462Z,39.33
2023-03-28T09:23:19.046Z,39.33
2023-03-28T09:26:17.151Z,39.25
2023-03-28T09:28:53.521Z,38.16
2023-03-28T09:31:27.215Z,38.43
2023-03-28T09:34:00.452Z,37.79
2023-03-28T09:36:49.135Z,37.41
2023-03-28T09:39:28.331Z,37.90
2023-03-28T09:42:02.501Z,36.63
2023-03-28T09:45:00.783Z,35.77
2023-03-28T09:47:48.980Z,35.09
2023-03-28T09:50:21.448Z,36.02
2023-03-28T09:52:57.175Z,33.32
2023-03-28T09:55:27.598Z,33.55
2023-03-28T09:58:05.359Z,33.30
2023-03-28T10:00:43.905Z,32.37
2023-03-28T10:03:52.602Z,31.97
2023-03-28T10:06:26.737Z,31.76
2023-03-28T10:09:10.741Z,32.21
2023-03-28T10:11:54.641Z,33.02
2023-03-28T10:14:33.550Z,34.04
2023-03-28T10:17:06.568Z,33.84
2023-03-28T10:19:44.856Z,34.19
2023-03-28T10:22:26.227Z,32.93
2023-03-28T10:24:56.521Z,32.87
2023-03-28T10:27:28.749Z,33.46
2023-03-28T10:29:58.362Z,34.63
2023-03-28T10:32:33.613Z,31.40
2023-03-28T10:35:25.063Z,29.66
2023-03-28T10:38:05.600Z,30.25
2023-03-28T10:41:02.461Z,30.48
2023-03-28T10:43:51.330Z,31.77
2023-03-28T10:46:41.220Z,32.52
2023-03-28T10:49:47.284Z,33.21
2023-03-28T10:52:35.952Z,33.60
2023-03-28T10:55:13.677Z,33.89
2023-03-28T10:58:12.610Z,33.26
2023-03-28T11:00:56.074Z,33.31
2023-03-28T11:03:44.164Z,33.38
2023-03-28T11:06:21.047Z,33.74
2023-03-28T11:09:02.268Z,34.95
2023-03-28T11:12:06.549Z,34.93
2023-03-28T11:14:48.562Z,34.41
2023-03-28T11:17:26.145Z,33.52
2023-03-28T11:20:30.592Z,31.19
2023-03-28T11:23:24.370Z,31.92
2023-03-28T11:26:14.552Z,31.13
2023-03-28T11:29:20.128Z,29.90
2023-03-28T11:32:01.237Z,31.11
2023-03-28T11:34:33.973Z,31.83
2023-03-28T11:37:07.516Z,32.21
2023-03-28T11:39:43.177Z,32.73
2023-03-28T11:42:22.692Z,33.28
2023-03-28T11:45:02.291Z,33.37
2023-03-28T11:47:36.630Z,33.91
2023-03-28T11:50:18.083Z,33.68
2023-03-28T11:53:04.505Z,33.31
2023-03-28T11:55:49.264Z,33.25
2023-03-28T11:58:38.379Z,32.88
2023-03-28T12:01:11.978Z,32.74
2023-03-28T12:03:52.140Z,31.96
2023-03-28T12:06:27.162Z,31.25
2023-03-28T12:09:00.360Z,31.34
2023-03-28T12:11:40.858Z,30.64
2023-03-28T12:14:27.115Z,29.13
2023-03-28T12:16:59.944Z,29.18
2023-03-28T12:19:34.943Z,28.98
2023-03-28T12:22:16.600Z,29.12
2023-03-28T12:24:57.024Z,28.65
2023-03-28T12:27:49.459Z,28.20
2023-03-28T12:30:27.434Z,27.68
2023-03-28T12:33:07.356Z,27.62
2023-03-28T12:35:49.515Z,27.15
2023-03-28T12:38:32.361Z,27.13
2023-03-28T12:41:19.629Z,25.70
2023-03-28T12:43:53.071Z,24.32
2023-03-28T12:46:30.966Z,24.76
2023-03-28T12:49:02.153Z,24.66
2023-03-28T12:51:36.747Z,24.17
2023-03-28T12:54:22.423Z,25.40
2023-03-28T12:57:02.948Z,25.98
2023-03-28T12:59:49.257Z,25.25
2023-03-28T13:02:40.821Z,25.65
2023-03-28T13:05:18.209Z,23.94
2023-03-28T13:08:00.467Z,23.56
2023-03-28T13:10:35.842Z,24.15
2023-03-28T13:13:17.918Z,24.64
2023-03-28T13:16:14.575Z,25.25
2023-03-28T13:18:48.239Z,25.95
2023-03-28T13:21:43.811Z,26.18
2023-03-28T13:24:33.421Z,26.23
2023-03-28T13:27:03.097Z,25.75
2023-03-28T13:29:49.167Z,26.62
2023-03-28T13:32:20.426Z,25.61
2023-03-28T13:34:50.260Z,25.28
2023-03-28T13:37:25.535Z,25.27
2023-03-28T13:39:59.356Z,25.19
2023-03-28T13:42:30.960Z,24.49
2023-03-28T13:45:02.839Z,24.84
2023-03-28T13:47:37.428Z,24.82
2023-03-28T13:50:15.846Z,25.73
2023-03-28T13:52:44.363Z,26.40
2023-03-28T13:55:22.038Z,26.58
2023-03-28T13:57:51.456Z,26.68
2023-03-28T14:00:24.060Z,26.75
2023-03-28T14:02:55.159Z,26.96
2023-03-28T14:05:25.271Z,26.91
2023-03-28T14:07:55.517Z,27.20
2023-03-28T14:10:31.944Z,27.12
2023-03-28T14:13:03.914Z,26.19
2023-03-28T14:15:39.009Z,25.88
2023-03-28T14:18:13.533Z,25.75
2023-03-28T14:20:42.423Z,26.14
2023-03-28T14:23:28.421Z,25.85
2023-03-28T14:25:58.898Z,25.26
2023-03-28T14:28:30.384Z,26.02
2023-03-28T14:30:59.316Z,26.61
2023-03-28T14:33:37.409Z,26.38
2023-03-28T14:36:06.956Z,26.34
2023-03-28T14:38:38.285Z,26.59
2023-03-28T14:41:15.187Z,26.47
2023-03-28T14:43:43.561Z,27.04
2023-03-28T14:46:12.567Z,26.19
2023-03-28T14:48:43.874Z,25.97
2023-03-28T14:51:14.852Z,25.88
2023-03-28T14:53:46.474Z,25.55
2023-03-28T14:56:19.418Z,22.81
2023-03-28T14:58:50.093Z,23.02
2023-03-28T15:01:23.090Z,23.53
2023-03-28T15:03:58.821Z,24.06
2023-03-28T15:06:29.498Z,24.75
2023-03-28T15:09:00.479Z,25.44
2023-03-28T15:11:32.646Z,26.20
2023-03-28T15:14:04.904Z,26.58
2023-03-28T15:16:45.985Z,27.22
2023-03-28T15:19:23.893Z,28.01
2023-03-28T15:21:56.674Z,28.52
2023-03-28T15:24:27.773Z,28.60
2023-03-28T15:26:59.166Z,28.77
2023-03-28T15:29:27.915Z,29.01
2023-03-28T15:32:02.813Z,29.11
2023-03-28T15:34:33.281Z,29.50
2023-03-28T15:37:03.593Z,29.61
2023-03-28T15:39:33.964Z,29.64
2023-03-28T15:42:11.782Z,30.36
2023-03-28T15:44:41.465Z,30.64
2023-03-28T15:47:14.404Z,30.58
2023-03-28T15:49:44.069Z,30.78
2023-03-28T15:52:18.833Z,30.83
2023-03-28T15:54:52.705Z,30.55
2023-03-28T15:57:22.964Z,31.27
2023-03-28T15:59:52.383Z,30.98
2023-03-28T16:02:30.464Z,30.83
2023-03-28T16:05:02.825Z,30.90
2023-03-28T16:07:35.998Z,30.42
2023-03-28T16:10:04.982Z,29.64
2023-03-28T16:12:42.631Z,30.32
2023-03-28T16:15:34.220Z,30.47
2023-03-28T16:18:14.898Z,30.58
2023-03-28T16:20:52.432Z,30.19
2023-03-28T16:23:21.178Z,30.43
2023-03-28T16:25:49.655Z,30.15
2023-03-28T16:28:19.599Z,30.06
2023-03-28T16:30:47.984Z,29.85
2023-03-28T16:33:17.089Z,30.28
2023-03-28T16:35:45.866Z,30.35
2023-03-28T16:38:15.614Z,30.49
2023-03-28T16:40:45.433Z,30.80
2023-03-28T16:43:15.542Z,29.91
2023-03-28T16:45:46.556Z,29.99
2023-03-28T16:48:15.133Z,30.18
2023-03-28T16:50:49.333Z,30.46
2023-03-28T16:53:19.102Z,30.51
2023-03-28T16:55:47.358Z,30.75
2023-03-28T16:58:15.656Z,30.95
2023-03-28T17:00:46.474Z,31.03
2023-03-28T17:03:15.910Z,31.19
2023-03-28T17:05:45.556Z,31.28
2023-03-28T17:08:13.939Z,31.35
2023-03-28T17:10:44.512Z,31.31
2023-03-28T17:13:12.812Z,31.37
2023-03-28T17:15:42.360Z,31.48
2023-03-28T17:18:11.434Z,31.81
2023-03-28T17:20:39.783Z,31.83
2023-03-28T17:23:11.241Z,32.12
2023-03-28T17:25:53.947Z,32.31
2023-03-28T17:28:24.592Z,32.29
2023-03-28T17:30:53.593Z,32.50
2023-03-28T17:33:22.513Z,33.00
2023-03-28T17:35:51.742Z,32.89
2023-03-28T17:38:20.037Z,33.23
2023-03-28T17:40:49.071Z,33.12
2023-03-28T17:43:17.626Z,33.27
2023-03-28T17:45:47.320Z,33.28
2023-03-28T17:48:15.583Z,33.09
2023-03-28T17:50:51.852Z,33.16
2023-03-28T17:53:20.181Z,33.49
2023-03-28T17:55:48.510Z,33.57
2023-03-28T17:58:16.855Z,34.28
2023-03-28T18:00:46.968Z,34.18
2023-03-28T18:03:15.355Z,34.38
2023-03-28T18:06:03.953Z,34.96
2023-03-28T18:08:33.402Z,35.02
2023-03-28T18:11:02.116Z,35.30
2023-03-28T18:13:30.464Z,35.26
2023-03-28T18:16:00.465Z,35.44
2023-03-28T18:18:28.897Z,35.50
2023-03-28T18:20:57.338Z,35.51
2023-03-28T18:23:25.730Z,36.22
2023-03-28T18:25:54.258Z,36.74
2023-03-28T18:28:23.493Z,36.25
2023-03-28T18:30:52.406Z,36.18
2023-03-28T18:33:22.861Z,36.33
2023-03-28T18:35:51.347Z,36.52
2023-03-28T18:38:19.691Z,36.48
2023-03-28T18:40:53.665Z,36.66
2023-03-28T18:43:22.566Z,36.94
2023-03-28T18:45:55.179Z,37.57
2023-03-28T18:48:25.069Z,38.45
2023-03-28T18:50:53.433Z,38.91
2023-03-28T18:53:22.512Z,39.41
2023-03-28T18:55:52.594Z,40.08
2023-03-28T18:58:23.328Z,40.52
2023-03-28T19:00:57.144Z,41.23
2023-03-28T19:03:27.991Z,41.39
2023-03-28T19:05:57.679Z,41.63
2023-03-28T19:08:26.534Z,42.19
2023-03-28T19:10:55.148Z,42.07
2023-03-28T19:13:23.528Z,42.30
2023-03-28T19:15:59.495Z,43.43
2023-03-28T19:18:29.935Z,43.76
2023-03-28T19:20:58.636Z,43.98
2023-03-28T19:23:28.553Z,43.73
2023-03-28T19:25:57.065Z,43.72
2023-03-28T19:28:25.696Z,43.73
2023-03-28T19:31:01.682Z,44.06
2023-03-28T19:33:31.688Z,44.31
2023-03-28T19:36:01.649Z,44.24
2023-03-28T19:38:30.973Z,44.16
2023-03-28T19:40:59.666Z,44.47
2023-03-28T19:43:28.795Z,44.68
2023-03-28T19:46:02.217Z,44.90
2023-03-28T19:48:32.516Z,45.48
2023-03-28T19:51:00.961Z,46.02
2023-03-28T19:53:29.515Z,46.89
2023-03-28T19:55:59.800Z,47.09
2023-03-28T19:58:29.573Z,47.76
2023-03-28T20:00:58.141Z,47.55
2023-03-28T20:03:26.903Z,47.59
2023-03-28T20:05:56.588Z,47.68
2023-03-28T20:08:24.907Z,47.69
2023-03-28T20:10:53.851Z,47.96
2023-03-28T20:13:22.098Z,48.50
2023-03-28T20:15:50.396Z,48.57
2023-03-28T20:18:20.689Z,48.44
2023-03-28T20:20:53.678Z,48.65
2023-03-28T20:23:24.736Z,48.76
2023-03-28T20:25:54.409Z,48.98
2023-03-28T20:28:25.050Z,48.94
2023-03-28T20:30:54.634Z,49.26
2023-03-28T20:33:23.142Z,49.34
2023-03-28T20:35:55.465Z,49.82
2023-03-28T20:38:25.649Z,50.07
2023-03-28T20:41:05.828Z,51.21
2023-03-28T20:43:36.853Z,51.26
2023-03-28T20:46:05.352Z,51.92
2023-03-28T20:48:36.780Z,52.00
2023-03-28T20:51:05.823Z,52.38
2023-03-28T20:53:35.673Z,52.21
2023-03-28T20:56:06.378Z,52.72
2023-03-28T20:58:35.538Z,52.59
2023-03-28T21:01:04.096Z,52.55
2023-03-28T21:03:46.771Z,52.72
2023-03-28T21:06:16.135Z,53.20
2023-03-28T21:08:47.379Z,52.83
2023-03-28T21:11:16.339Z,52.75
2023-03-28T21:13:44.883Z,52.80
2023-03-28T21:16:15.261Z,53.06
2023-03-28T21:18:43.791Z,52.99
2023-03-28T21:21:13.921Z,53.07
2023-03-28T21:23:42.806Z,53.48
2023-03-28T21:26:13.882Z,53.37
2023-03-28T21:28:42.186Z,53.52
2023-03-28T21:31:13.270Z,53.70
2023-03-28T21:33:42.792Z,53.70
2023-03-28T21:36:12.911Z,53.54
2023-03-28T21:38:41.715Z,53.53
2023-03-28T21:41:11.307Z,53.42
2023-03-28T21:43:41.177Z,53.40
2023-03-28T21:46:11.345Z,53.53
2023-03-28T21:48:39.908Z,53.45
2023-03-28T21:51:08.613Z,53.35
2023-03-28T21:53:38.649Z,53.69
2023-03-28T21:56:08.145Z,53.63
2023-03-28T21:58:36.384Z,53.69
2023-03-28T22:01:06.842Z,54.00
2023-03-28T22:03:37.672Z,53.95
2023-03-28T22:06:06.849Z,54.10
2023-03-28T22:08:35.144Z,53.98
2023-03-28T22:11:04.592Z,53.94
2023-03-28T22:13:33.156Z,53.88
2023-03-28T22:16:01.419Z,53.68
2023-03-28T22:18:31.218Z,53.88
2023-03-28T22:21:02.663Z,53.87
2023-03-28T22:23:31.663Z,53.73
2023-03-28T22:25:59.988Z,53.66
2023-03-28T22:28:28.285Z,53.43
2023-03-28T22:30:57.388Z,53.47
2023-03-28T22:33:25.985Z,53.53
2023-03-28T22:35:55.664Z,53.27
2023-03-28T22:38:23.979Z,53.27
2023-03-28T22:40:52.315Z,53.08
2023-03-28T22:43:20.497Z,53.16
2023-03-28T22:45:48.905Z,53.06
2023-03-28T22:48:17.260Z,53.01
2023-03-28T22:50:47.308Z,53.01
2023-03-28T22:53:17.861Z,53.02
2023-03-28T22:55:46.369Z,53.08
2023-03-28T22:58:14.709Z,53.27
2023-03-28T23:00:43.902Z,53.36
2023-03-28T23:03:12.331Z,53.17
2023-03-28T23:05:40.819Z,53.19
2023-03-28T23:08:09.201Z,53.00
2023-03-28T23:10:38.945Z,53.04
2023-03-28T23:13:08.512Z,52.83
2023-03-28T23:15:37.167Z,52.59
2023-03-28T23:18:08.104Z,52.29
2023-03-28T23:20:37.374Z,52.12
2023-03-28T23:23:05.665Z,51.92
2023-03-28T23:25:34.539Z,52.08
2023-03-28T23:28:04.217Z,51.69
2023-03-28T23:30:32.483Z,51.62
2023-03-28T23:33:00.839Z,51.56
2023-03-28T23:35:29.197Z,51.54
2023-03-28T23:37:57.493Z,51.33
2023-03-28T23:40:25.727Z,51.24
2023-03-28T23:42:54.022Z,51.29
2023-03-28T23:45:24.247Z,51.28
2023-03-28T23:47:52.607Z,51.26
2023-03-28T23:50:20.974Z,51.43
2023-03-28T23:52:49.297Z,51.29
2023-03-28T23:55:17.645Z,51.31
2023-03-28T23:57:45.953Z,51.26
